sensor_id;sensor_type;location;lat;lon;timestamp;P1;durP1;ratioP1;P2;durP2;ratioP2
20649;SDS011;10484;48.736;9.332;2023-03-31T00:01:23;3.47;;;1.27;;
20649;SDS011;10484;48.736;9.332;2023-03-31T00:03:49;2.20;;;1.30;;
20649;SDS011;10484;48.736;9.332;2023-03-31T00:06:15;3.10;;;1.47;;
20649;SDS011;10484;48.736;9.332;2023-03-31T00:08:43;6.37;;;1.60;;
20649;SDS011;10484;48.736;9.332;2023-03-31T00:11:10;4.00;;;1.43;;
20649;SDS011;10484;48.736;9.332;2023-03-31T00:13:36;4.10;;;1.37;;
20649;SDS011;10484;48.736;9.332;2023-03-31T00:16:03;4.73;;;1.93;;
20649;SDS011;10484;48.736;9.332;2023-03-31T00:18:31;4.50;;;1.10;;
20649;SDS011;10484;48.736;9.332;2023-03-31T00:21:09;1.67;;;1.20;;
20649;SDS011;10484;48.736;9.332;2023-03-31T00:23:49;1.23;;;1.03;;
20649;SDS011;10484;48.736;9.332;2023-03-31T00:26:18;1.70;;;1.50;;
20649;SDS011;10484;48.736;9.332;2023-03-31T00:28:44;2.10;;;1.77;;
20649;SDS011;10484;48.736;9.332;2023-03-31T00:31:09;1.60;;;1.33;;
20649;SDS011;10484;48.736;9.332;2023-03-31T00:33:35;6.30;;;1.80;;
20649;SDS011;10484;48.736;9.332;2023-03-31T00:36:01;3.33;;;1.20;;
20649;SDS011;10484;48.736;9.332;2023-03-31T00:38:30;3.37;;;1.50;;
20649;SDS011;10484;48.736;9.332;2023-03-31T00:40:56;3.40;;;1.60;;
20649;SDS011;10484;48.736;9.332;2023-03-31T00:43:33;4.83;;;1.67;;
20649;SDS011;10484;48.736;9.332;2023-03-31T00:48:47;1.70;;;1.33;;
20649;SDS011;10484;48.736;9.332;2023-03-31T00:51:15;5.17;;;1.20;;
20649;SDS011;10484;48.736;9.332;2023-03-31T00:53:42;1.90;;;1.63;;
20649;SDS011;10484;48.736;9.332;2023-03-31T00:56:13;1.60;;;1.43;;
20649;SDS011;10484;48.736;9.332;2023-03-31T00:58:40;3.43;;;1.47;;
20649;SDS011;10484;48.736;9.332;2023-03-31T01:01:09;3.10;;;1.20;;
20649;SDS011;10484;48.736;9.332;2023-03-31T01:03:41;4.00;;;1.77;;
20649;SDS011;10484;48.736;9.332;2023-03-31T01:06:10;1.70;;;1.30;;
20649;SDS011;10484;48.736;9.332;2023-03-31T01:08:43;4.63;;;1.33;;
20649;SDS011;10484;48.736;9.332;2023-03-31T01:11:15;2.30;;;1.60;;
20649;SDS011;10484;48.736;9.332;2023-03-31T01:13:46;3.17;;;1.40;;
20649;SDS011;10484;48.736;9.332;2023-03-31T01:16:15;2.93;;;1.40;;
20649;SDS011;10484;48.736;9.332;2023-03-31T01:18:41;2.30;;;1.40;;
20649;SDS011;10484;48.736;9.332;2023-03-31T01:31:56;4.47;;;1.60;;
20649;SDS011;10484;48.736;9.332;2023-03-31T01:37:53;2.43;;;1.57;;
20649;SDS011;10484;48.736;9.332;2023-03-31T01:40:47;4.70;;;1.30;;
20649;SDS011;10484;48.736;9.332;2023-03-31T01:46:05;4.60;;;2.30;;
20649;SDS011;10484;48.736;9.332;2023-03-31T01:54:02;1.83;;;1.33;;
20649;SDS011;10484;48.736;9.332;2023-03-31T01:56:40;5.77;;;2.07;;
20649;SDS011;10484;48.736;9.332;2023-03-31T02:02:07;3.27;;;1.50;;
20649;SDS011;10484;48.736;9.332;2023-03-31T02:04:53;6.30;;;2.00;;
20649;SDS011;10484;48.736;9.332;2023-03-31T02:07:25;7.70;;;1.70;;
20649;SDS011;10484;48.736;9.332;2023-03-31T02:09:56;7.37;;;1.80;;
20649;SDS011;10484;48.736;9.332;2023-03-31T02:12:24;3.77;;;1.60;;
20649;SDS011;10484;48.736;9.332;2023-03-31T02:14:51;1.93;;;1.70;;
20649;SDS011;10484;48.736;9.332;2023-03-31T02:17:21;1.80;;;1.50;;
20649;SDS011;10484;48.736;9.332;2023-03-31T02:19:57;2.27;;;1.83;;
20649;SDS011;10484;48.736;9.332;2023-03-31T02:22:26;5.90;;;1.77;;
20649;SDS011;10484;48.736;9.332;2023-03-31T02:24:55;2.13;;;1.60;;
20649;SDS011;10484;48.736;9.332;2023-03-31T02:27:27;5.63;;;1.90;;
20649;SDS011;10484;48.736;9.332;2023-03-31T02:29:59;3.03;;;1.50;;
20649;SDS011;10484;48.736;9.332;2023-03-31T02:35:01;3.70;;;1.37;;
20649;SDS011;10484;48.736;9.332;2023-03-31T02:37:27;3.57;;;1.70;;
20649;SDS011;10484;48.736;9.332;2023-03-31T02:39:55;3.23;;;1.30;;
20649;SDS011;10484;48.736;9.332;2023-03-31T02:42:23;4.93;;;1.80;;
20649;SDS011;10484;48.736;9.332;2023-03-31T02:44:49;7.23;;;2.23;;
20649;SDS011;10484;48.736;9.332;2023-03-31T02:47:16;6.73;;;1.73;;
20649;SDS011;10484;48.736;9.332;2023-03-31T02:49:45;4.07;;;1.97;;
20649;SDS011;10484;48.736;9.332;2023-03-31T02:52:22;3.93;;;1.93;;
20649;SDS011;10484;48.736;9.332;2023-03-31T02:57:40;3.67;;;1.43;;
20649;SDS011;10484;48.736;9.332;2023-03-31T03:08:21;4.07;;;1.87;;
20649;SDS011;10484;48.736;9.332;2023-03-31T03:14:21;4.53;;;1.93;;
20649;SDS011;10484;48.736;9.332;2023-03-31T03:17:11;3.90;;;1.50;;
20649;SDS011;10484;48.736;9.332;2023-03-31T03:19:53;2.20;;;1.53;;
20649;SDS011;10484;48.736;9.332;2023-03-31T03:22:25;2.90;;;1.67;;
20649;SDS011;10484;48.736;9.332;2023-03-31T03:24:51;8.87;;;2.13;;
20649;SDS011;10484;48.736;9.332;2023-03-31T03:27:18;2.17;;;1.70;;
20649;SDS011;10484;48.736;9.332;2023-03-31T03:29:46;3.67;;;1.53;;
20649;SDS011;10484;48.736;9.332;2023-03-31T03:32:12;2.37;;;1.30;;
20649;SDS011;10484;48.736;9.332;2023-03-31T03:34:38;1.70;;;1.23;;
20649;SDS011;10484;48.736;9.332;2023-03-31T03:37:04;2.43;;;1.43;;
20649;SDS011;10484;48.736;9.332;2023-03-31T03:39:30;4.20;;;1.77;;
20649;SDS011;10484;48.736;9.332;2023-03-31T03:41:56;2.50;;;1.23;;
20649;SDS011;10484;48.736;9.332;2023-03-31T03:44:22;2.00;;;1.17;;
20649;SDS011;10484;48.736;9.332;2023-03-31T03:46:47;4.97;;;1.23;;
20649;SDS011;10484;48.736;9.332;2023-03-31T03:49:13;2.43;;;2.13;;
20649;SDS011;10484;48.736;9.332;2023-03-31T03:51:38;2.10;;;1.37;;
20649;SDS011;10484;48.736;9.332;2023-03-31T03:54:04;3.20;;;1.70;;
20649;SDS011;10484;48.736;9.332;2023-03-31T03:56:30;4.20;;;2.10;;
20649;SDS011;10484;48.736;9.332;2023-03-31T03:58:55;6.00;;;2.00;;
20649;SDS011;10484;48.736;9.332;2023-03-31T04:01:21;5.97;;;2.50;;
20649;SDS011;10484;48.736;9.332;2023-03-31T04:03:47;5.30;;;2.47;;
20649;SDS011;10484;48.736;9.332;2023-03-31T04:06:13;4.87;;;2.13;;
20649;SDS011;10484;48.736;9.332;2023-03-31T04:08:38;7.30;;;3.00;;
20649;SDS011;10484;48.736;9.332;2023-03-31T04:11:09;3.73;;;2.37;;
20649;SDS011;10484;48.736;9.332;2023-03-31T04:13:41;4.23;;;2.27;;
20649;SDS011;10484;48.736;9.332;2023-03-31T04:16:07;3.47;;;2.20;;
20649;SDS011;10484;48.736;9.332;2023-03-31T04:18:33;2.27;;;1.93;;
20649;SDS011;10484;48.736;9.332;2023-03-31T04:21:01;6.13;;;2.00;;
20649;SDS011;10484;48.736;9.332;2023-03-31T04:25:56;5.90;;;2.23;;
20649;SDS011;10484;48.736;9.332;2023-03-31T04:28:22;4.80;;;1.80;;
20649;SDS011;10484;48.736;9.332;2023-03-31T04:30:47;3.00;;;2.27;;
20649;SDS011;10484;48.736;9.332;2023-03-31T04:33:13;2.43;;;2.23;;
20649;SDS011;10484;48.736;9.332;2023-03-31T04:35:39;6.60;;;2.53;;
20649;SDS011;10484;48.736;9.332;2023-03-31T04:38:16;4.87;;;2.40;;
20649;SDS011;10484;48.736;9.332;2023-03-31T04:40:47;5.20;;;2.30;;
20649;SDS011;10484;48.736;9.332;2023-03-31T04:43:14;4.40;;;2.10;;
20649;SDS011;10484;48.736;9.332;2023-03-31T04:45:40;7.40;;;2.33;;
20649;SDS011;10484;48.736;9.332;2023-03-31T04:48:06;6.90;;;2.87;;
20649;SDS011;10484;48.736;9.332;2023-03-31T04:50:32;3.03;;;1.83;;
20649;SDS011;10484;48.736;9.332;2023-03-31T04:52:58;4.93;;;2.90;;
20649;SDS011;10484;48.736;9.332;2023-03-31T04:55:23;4.20;;;2.60;;
20649;SDS011;10484;48.736;9.332;2023-03-31T04:57:49;6.77;;;2.80;;
20649;SDS011;10484;48.736;9.332;2023-03-31T05:00:15;4.67;;;2.37;;
20649;SDS011;10484;48.736;9.332;2023-03-31T05:02:42;7.37;;;3.00;;
20649;SDS011;10484;48.736;9.332;2023-03-31T05:05:08;4.73;;;3.30;;
20649;SDS011;10484;48.736;9.332;2023-03-31T05:07:34;7.43;;;2.63;;
20649;SDS011;10484;48.736;9.332;2023-03-31T05:10:00;6.47;;;2.70;;
20649;SDS011;10484;48.736;9.332;2023-03-31T05:12:25;5.73;;;2.53;;
20649;SDS011;10484;48.736;9.332;2023-03-31T05:14:51;3.70;;;2.33;;
20649;SDS011;10484;48.736;9.332;2023-03-31T05:17:17;6.80;;;3.77;;
20649;SDS011;10484;48.736;9.332;2023-03-31T05:19:42;5.83;;;3.00;;
20649;SDS011;10484;48.736;9.332;2023-03-31T05:22:08;7.57;;;3.47;;
20649;SDS011;10484;48.736;9.332;2023-03-31T05:24:34;7.87;;;3.17;;
20649;SDS011;10484;48.736;9.332;2023-03-31T05:26:59;5.27;;;3.30;;
20649;SDS011;10484;48.736;9.332;2023-03-31T05:29:25;6.83;;;2.80;;
20649;SDS011;10484;48.736;9.332;2023-03-31T05:31:51;6.87;;;2.67;;
20649;SDS011;10484;48.736;9.332;2023-03-31T05:34:18;6.40;;;3.30;;
20649;SDS011;10484;48.736;9.332;2023-03-31T05:36:44;9.00;;;3.47;;
20649;SDS011;10484;48.736;9.332;2023-03-31T05:39:12;5.73;;;2.93;;
20649;SDS011;10484;48.736;9.332;2023-03-31T05:41:38;12.73;;;4.03;;
20649;SDS011;10484;48.736;9.332;2023-03-31T05:44:04;6.73;;;3.40;;
20649;SDS011;10484;48.736;9.332;2023-03-31T05:46:30;9.90;;;3.50;;
20649;SDS011;10484;48.736;9.332;2023-03-31T05:48:56;9.43;;;4.40;;
20649;SDS011;10484;48.736;9.332;2023-03-31T05:51:22;6.27;;;4.00;;
20649;SDS011;10484;48.736;9.332;2023-03-31T05:53:48;8.83;;;4.60;;
20649;SDS011;10484;48.736;9.332;2023-03-31T05:56:14;5.93;;;4.00;;
20649;SDS011;10484;48.736;9.332;2023-03-31T05:58:40;8.13;;;4.07;;
20649;SDS011;10484;48.736;9.332;2023-03-31T06:01:09;6.07;;;4.20;;
20649;SDS011;10484;48.736;9.332;2023-03-31T06:03:37;5.03;;;3.90;;
20649;SDS011;10484;48.736;9.332;2023-03-31T06:06:05;5.17;;;3.73;;
20649;SDS011;10484;48.736;9.332;2023-03-31T06:08:32;7.47;;;4.30;;
20649;SDS011;10484;48.736;9.332;2023-03-31T06:10:59;5.27;;;3.97;;
20649;SDS011;10484;48.736;9.332;2023-03-31T06:13:35;14.20;;;5.23;;
20649;SDS011;10484;48.736;9.332;2023-03-31T06:16:01;18.43;;;5.63;;
20649;SDS011;10484;48.736;9.332;2023-03-31T06:18:28;18.63;;;6.83;;
20649;SDS011;10484;48.736;9.332;2023-03-31T06:20:55;11.60;;;6.30;;
20649;SDS011;10484;48.736;9.332;2023-03-31T06:23:22;14.17;;;8.20;;
20649;SDS011;10484;48.736;9.332;2023-03-31T06:25:48;11.90;;;7.53;;
20649;SDS011;10484;48.736;9.332;2023-03-31T06:28:14;16.60;;;7.30;;
20649;SDS011;10484;48.736;9.332;2023-03-31T06:30:40;17.03;;;7.67;;
20649;SDS011;10484;48.736;9.332;2023-03-31T06:33:05;13.23;;;7.00;;
20649;SDS011;10484;48.736;9.332;2023-03-31T06:35:31;13.37;;;8.57;;
20649;SDS011;10484;48.736;9.332;2023-03-31T06:37:57;13.73;;;7.83;;
20649;SDS011;10484;48.736;9.332;2023-03-31T06:40:22;11.07;;;8.40;;
20649;SDS011;10484;48.736;9.332;2023-03-31T06:42:48;12.63;;;7.67;;
20649;SDS011;10484;48.736;9.332;2023-03-31T06:45:14;16.70;;;7.53;;
20649;SDS011;10484;48.736;9.332;2023-03-31T06:47:40;13.80;;;6.80;;
20649;SDS011;10484;48.736;9.332;2023-03-31T06:50:06;13.90;;;7.20;;
20649;SDS011;10484;48.736;9.332;2023-03-31T06:52:33;16.43;;;6.97;;
20649;SDS011;10484;48.736;9.332;2023-03-31T06:55:00;14.33;;;8.03;;
20649;SDS011;10484;48.736;9.332;2023-03-31T06:57:26;13.00;;;6.90;;
20649;SDS011;10484;48.736;9.332;2023-03-31T06:59:52;12.40;;;6.67;;
20649;SDS011;10484;48.736;9.332;2023-03-31T07:02:18;19.40;;;6.60;;
20649;SDS011;10484;48.736;9.332;2023-03-31T07:04:44;12.13;;;6.97;;
20649;SDS011;10484;48.736;9.332;2023-03-31T07:07:10;16.63;;;6.80;;
20649;SDS011;10484;48.736;9.332;2023-03-31T07:09:36;12.30;;;7.07;;
20649;SDS011;10484;48.736;9.332;2023-03-31T07:12:02;16.13;;;7.83;;
20649;SDS011;10484;48.736;9.332;2023-03-31T07:14:29;12.10;;;7.10;;
20649;SDS011;10484;48.736;9.332;2023-03-31T07:16:55;14.80;;;5.93;;
20649;SDS011;10484;48.736;9.332;2023-03-31T07:19:21;9.30;;;6.00;;
20649;SDS011;10484;48.736;9.332;2023-03-31T07:21:47;14.83;;;6.50;;
20649;SDS011;10484;48.736;9.332;2023-03-31T07:24:13;7.77;;;5.20;;
20649;SDS011;10484;48.736;9.332;2023-03-31T07:26:38;8.93;;;5.13;;
20649;SDS011;10484;48.736;9.332;2023-03-31T07:29:04;4.43;;;3.33;;
20649;SDS011;10484;48.736;9.332;2023-03-31T07:31:30;6.70;;;3.53;;
20649;SDS011;10484;48.736;9.332;2023-03-31T07:33:55;6.80;;;2.87;;
20649;SDS011;10484;48.736;9.332;2023-03-31T07:36:21;5.30;;;3.40;;
20649;SDS011;10484;48.736;9.332;2023-03-31T07:38:47;4.67;;;1.90;;
20649;SDS011;10484;48.736;9.332;2023-03-31T07:41:14;8.23;;;3.77;;
20649;SDS011;10484;48.736;9.332;2023-03-31T07:43:44;7.00;;;2.70;;
20649;SDS011;10484;48.736;9.332;2023-03-31T07:46:23;2.30;;;1.77;;
20649;SDS011;10484;48.736;9.332;2023-03-31T07:48:51;2.93;;;2.60;;
20649;SDS011;10484;48.736;9.332;2023-03-31T07:51:18;3.00;;;2.37;;
20649;SDS011;10484;48.736;9.332;2023-03-31T07:53:46;3.10;;;1.90;;
20649;SDS011;10484;48.736;9.332;2023-03-31T07:56:13;1.47;;;1.37;;
20649;SDS011;10484;48.736;9.332;2023-03-31T07:58:41;3.30;;;1.30;;
20649;SDS011;10484;48.736;9.332;2023-03-31T08:01:07;1.60;;;1.10;;
20649;SDS011;10484;48.736;9.332;2023-03-31T08:03:32;1.30;;;0.97;;
20649;SDS011;10484;48.736;9.332;2023-03-31T08:05:58;1.43;;;1.30;;
20649;SDS011;10484;48.736;9.332;2023-03-31T08:08:24;0.97;;;0.87;;
20649;SDS011;10484;48.736;9.332;2023-03-31T08:10:50;1.27;;;0.93;;
20649;SDS011;10484;48.736;9.332;2023-03-31T08:13:16;2.27;;;1.20;;
20649;SDS011;10484;48.736;9.332;2023-03-31T08:15:42;1.40;;;0.70;;
20649;SDS011;10484;48.736;9.332;2023-03-31T08:18:08;2.47;;;1.03;;
20649;SDS011;10484;48.736;9.332;2023-03-31T08:20:33;2.10;;;0.90;;
20649;SDS011;10484;48.736;9.332;2023-03-31T08:22:59;1.30;;;1.07;;
20649;SDS011;10484;48.736;9.332;2023-03-31T08:25:24;3.80;;;1.20;;
20649;SDS011;10484;48.736;9.332;2023-03-31T08:27:50;1.57;;;0.90;;
20649;SDS011;10484;48.736;9.332;2023-03-31T08:30:16;7.33;;;1.70;;
20649;SDS011;10484;48.736;9.332;2023-03-31T08:32:43;1.87;;;1.17;;
20649;SDS011;10484;48.736;9.332;2023-03-31T08:35:09;4.73;;;1.60;;
20649;SDS011;10484;48.736;9.332;2023-03-31T08:37:35;1.43;;;1.33;;
20649;SDS011;10484;48.736;9.332;2023-03-31T08:40:02;5.53;;;1.40;;
20649;SDS011;10484;48.736;9.332;2023-03-31T08:45:05;1.40;;;1.07;;
20649;SDS011;10484;48.736;9.332;2023-03-31T08:47:44;1.10;;;1.00;;
20649;SDS011;10484;48.736;9.332;2023-03-31T08:50:14;2.20;;;0.97;;
20649;SDS011;10484;48.736;9.332;2023-03-31T08:52:43;2.10;;;0.70;;
20649;SDS011;10484;48.736;9.332;2023-03-31T08:55:19;1.37;;;1.00;;
20649;SDS011;10484;48.736;9.332;2023-03-31T08:57:51;2.47;;;1.03;;
20649;SDS011;10484;48.736;9.332;2023-03-31T09:00:25;2.37;;;0.77;;
20649;SDS011;10484;48.736;9.332;2023-03-31T09:03:04;1.17;;;0.70;;
20649;SDS011;10484;48.736;9.332;2023-03-31T09:10:50;7.70;;;0.60;;
20649;SDS011;10484;48.736;9.332;2023-03-31T09:16:12;2.03;;;0.80;;
20649;SDS011;10484;48.736;9.332;2023-03-31T09:18:40;0.60;;;0.53;;
20649;SDS011;10484;48.736;9.332;2023-03-31T09:24:05;1.70;;;0.50;;
20649;SDS011;10484;48.736;9.332;2023-03-31T09:26:44;1.63;;;0.80;;
20649;SDS011;10484;48.736;9.332;2023-03-31T09:29:14;1.23;;;0.50;;
20649;SDS011;10484;48.736;9.332;2023-03-31T09:31:48;0.73;;;0.60;;
20649;SDS011;10484;48.736;9.332;2023-03-31T09:34:24;2.83;;;0.53;;
20649;SDS011;10484;48.736;9.332;2023-03-31T09:36:55;0.70;;;0.60;;
20649;SDS011;10484;48.736;9.332;2023-03-31T09:39:21;1.53;;;0.90;;
20649;SDS011;10484;48.736;9.332;2023-03-31T09:41:48;1.37;;;0.57;;
20649;SDS011;10484;48.736;9.332;2023-03-31T09:46:49;2.63;;;0.60;;
20649;SDS011;10484;48.736;9.332;2023-03-31T09:49:17;0.93;;;0.63;;
20649;SDS011;10484;48.736;9.332;2023-03-31T09:51:51;2.07;;;1.00;;
20649;SDS011;10484;48.736;9.332;2023-03-31T09:54:30;1.23;;;0.63;;
20649;SDS011;10484;48.736;9.332;2023-03-31T09:57:15;1.60;;;0.70;;
20649;SDS011;10484;48.736;9.332;2023-03-31T10:00:00;1.43;;;0.60;;
20649;SDS011;10484;48.736;9.332;2023-03-31T10:02:38;1.80;;;0.73;;
20649;SDS011;10484;48.736;9.332;2023-03-31T10:08:11;1.77;;;0.93;;
20649;SDS011;10484;48.736;9.332;2023-03-31T10:10:57;1.77;;;0.70;;
20649;SDS011;10484;48.736;9.332;2023-03-31T10:21:58;1.50;;;0.50;;
20649;SDS011;10484;48.736;9.332;2023-03-31T10:24:39;2.03;;;0.60;;
20649;SDS011;10484;48.736;9.332;2023-03-31T10:27:26;2.70;;;0.70;;
20649;SDS011;10484;48.736;9.332;2023-03-31T10:29:54;2.10;;;0.60;;
20649;SDS011;10484;48.736;9.332;2023-03-31T10:34:52;3.10;;;1.17;;
20649;SDS011;10484;48.736;9.332;2023-03-31T10:37:21;1.30;;;0.50;;
20649;SDS011;10484;48.736;9.332;2023-03-31T10:39:56;3.33;;;0.50;;
20649;SDS011;10484;48.736;9.332;2023-03-31T10:42:33;6.07;;;0.97;;
20649;SDS011;10484;48.736;9.332;2023-03-31T10:45:09;1.40;;;0.50;;
20649;SDS011;10484;48.736;9.332;2023-03-31T10:47:39;2.60;;;0.90;;
20649;SDS011;10484;48.736;9.332;2023-03-31T10:50:14;1.90;;;0.93;;
20649;SDS011;10484;48.736;9.332;2023-03-31T10:52:44;5.77;;;0.80;;
20649;SDS011;10484;48.736;9.332;2023-03-31T10:55:13;1.93;;;1.10;;
20649;SDS011;10484;48.736;9.332;2023-03-31T10:57:57;4.07;;;1.13;;
20649;SDS011;10484;48.736;9.332;2023-03-31T11:00:31;1.47;;;1.00;;
20649;SDS011;10484;48.736;9.332;2023-03-31T11:06:01;2.17;;;0.40;;
20649;SDS011;10484;48.736;9.332;2023-03-31T11:09:00;1.33;;;0.60;;
20649;SDS011;10484;48.736;9.332;2023-03-31T11:25:07;1.87;;;0.60;;
20649;SDS011;10484;48.736;9.332;2023-03-31T11:28:01;8.37;;;1.80;;
20649;SDS011;10484;48.736;9.332;2023-03-31T11:30:29;2.37;;;0.70;;
20649;SDS011;10484;48.736;9.332;2023-03-31T11:33:30;0.93;;;0.50;;
20649;SDS011;10484;48.736;9.332;2023-03-31T11:36:21;1.83;;;0.40;;
20649;SDS011;10484;48.736;9.332;2023-03-31T11:41:59;0.60;;;0.30;;
20649;SDS011;10484;48.736;9.332;2023-03-31T11:44:31;0.30;;;0.20;;
20649;SDS011;10484;48.736;9.332;2023-03-31T11:47:20;0.30;;;0.20;;
20649;SDS011;10484;48.736;9.332;2023-03-31T11:49:50;0.30;;;0.20;;
20649;SDS011;10484;48.736;9.332;2023-03-31T11:52:29;0.30;;;0.20;;
20649;SDS011;10484;48.736;9.332;2023-03-31T11:55:04;0.30;;;0.20;;
20649;SDS011;10484;48.736;9.332;2023-03-31T12:00:16;0.30;;;0.20;;
20649;SDS011;10484;48.736;9.332;2023-03-31T12:02:53;0.30;;;0.20;;
20649;SDS011;10484;48.736;9.332;2023-03-31T12:05:35;0.30;;;0.20;;
20649;SDS011;10484;48.736;9.332;2023-03-31T12:08:21;0.30;;;0.20;;
20649;SDS011;10484;48.736;9.332;2023-03-31T12:11:02;0.30;;;0.20;;
20649;SDS011;10484;48.736;9.332;2023-03-31T12:13:56;0.30;;;0.20;;
20649;SDS011;10484;48.736;9.332;2023-03-31T12:16:49;0.30;;;0.20;;
20649;SDS011;10484;48.736;9.332;2023-03-31T12:19:19;0.30;;;0.20;;
20649;SDS011;10484;48.736;9.332;2023-03-31T12:24:33;0.30;;;0.20;;
20649;SDS011;10484;48.736;9.332;2023-03-31T12:29:45;0.30;;;0.20;;
20649;SDS011;10484;48.736;9.332;2023-03-31T12:32:22;0.30;;;0.20;;
20649;SDS011;10484;48.736;9.332;2023-03-31T12:34:57;0.30;;;0.20;;
20649;SDS011;10484;48.736;9.332;2023-03-31T12:40:03;0.30;;;0.20;;
20649;SDS011;10484;48.736;9.332;2023-03-31T12:47:53;0.30;;;0.20;;
20649;SDS011;10484;48.736;9.332;2023-03-31T12:51:14;3.53;;;0.30;;
20649;SDS011;10484;48.736;9.332;2023-03-31T12:59:34;1.70;;;0.43;;
20649;SDS011;10484;48.736;9.332;2023-03-31T13:04:41;0.93;;;0.40;;
20649;SDS011;10484;48.736;9.332;2023-03-31T13:10:34;0.80;;;0.40;;
20649;SDS011;10484;48.736;9.332;2023-03-31T13:12:40;0.73;;;0.50;;
20649;SDS011;10484;48.736;9.332;2023-03-31T13:15:18;4.20;;;0.60;;
20649;SDS011;10484;48.736;9.332;2023-03-31T13:17:46;3.07;;;0.70;;
20649;SDS011;10484;48.736;9.332;2023-03-31T13:20:32;1.77;;;1.17;;
20649;SDS011;10484;48.736;9.332;2023-03-31T13:23:19;1.30;;;0.53;;
20649;SDS011;10484;48.736;9.332;2023-03-31T13:30:48;2.30;;;0.60;;
20649;SDS011;10484;48.736;9.332;2023-03-31T13:33:35;1.37;;;0.70;;
20649;SDS011;10484;48.736;9.332;2023-03-31T13:38:51;3.60;;;0.90;;
20649;SDS011;10484;48.736;9.332;2023-03-31T13:50:04;1.90;;;0.70;;
20649;SDS011;10484;48.736;9.332;2023-03-31T13:59:07;0.97;;;0.40;;
20649;SDS011;10484;48.736;9.332;2023-03-31T14:13:06;2.93;;;0.30;;
20649;SDS011;10484;48.736;9.332;2023-03-31T14:18:21;1.03;;;0.33;;
20649;SDS011;10484;48.736;9.332;2023-03-31T14:20:55;1.60;;;0.60;;
20649;SDS011;10484;48.736;9.332;2023-03-31T14:32:30;0.60;;;0.20;;
20649;SDS011;10484;48.736;9.332;2023-03-31T14:35:01;0.60;;;0.30;;
20649;SDS011;10484;48.736;9.332;2023-03-31T14:37:50;0.60;;;0.30;;
20649;SDS011;10484;48.736;9.332;2023-03-31T14:40:17;0.97;;;0.40;;
20649;SDS011;10484;48.736;9.332;2023-03-31T14:42:44;0.53;;;0.30;;
20649;SDS011;10484;48.736;9.332;2023-03-31T14:45:23;0.87;;;0.30;;
20649;SDS011;10484;48.736;9.332;2023-03-31T14:47:57;0.40;;;0.30;;
20649;SDS011;10484;48.736;9.332;2023-03-31T14:50:27;0.50;;;0.30;;
20649;SDS011;10484;48.736;9.332;2023-03-31T14:52:57;0.40;;;0.30;;
20649;SDS011;10484;48.736;9.332;2023-03-31T14:55:25;2.63;;;0.30;;
20649;SDS011;10484;48.736;9.332;2023-03-31T14:57:53;1.90;;;0.47;;
20649;SDS011;10484;48.736;9.332;2023-03-31T15:00:26;0.60;;;0.40;;
20649;SDS011;10484;48.736;9.332;2023-03-31T15:02:54;0.70;;;0.40;;
20649;SDS011;10484;48.736;9.332;2023-03-31T15:05:32;0.40;;;0.40;;
20649;SDS011;10484;48.736;9.332;2023-03-31T15:08:04;0.83;;;0.40;;
20649;SDS011;10484;48.736;9.332;2023-03-31T15:10:53;1.27;;;0.50;;
20649;SDS011;10484;48.736;9.332;2023-03-31T15:13:25;1.50;;;0.30;;
20649;SDS011;10484;48.736;9.332;2023-03-31T15:16:48;0.83;;;0.57;;
20649;SDS011;10484;48.736;9.332;2023-03-31T15:21:41;0.70;;;0.50;;
20649;SDS011;10484;48.736;9.332;2023-03-31T15:24:09;1.10;;;0.43;;
20649;SDS011;10484;48.736;9.332;2023-03-31T15:26:37;0.87;;;0.50;;
20649;SDS011;10484;48.736;9.332;2023-03-31T15:29:12;0.57;;;0.37;;
20649;SDS011;10484;48.736;9.332;2023-03-31T15:31:45;2.37;;;0.90;;
20649;SDS011;10484;48.736;9.332;2023-03-31T15:34:19;0.87;;;0.40;;
20649;SDS011;10484;48.736;9.332;2023-03-31T15:36:49;1.37;;;0.50;;
20649;SDS011;10484;48.736;9.332;2023-03-31T15:39:17;0.67;;;0.30;;
20649;SDS011;10484;48.736;9.332;2023-03-31T15:41:43;1.03;;;0.40;;
20649;SDS011;10484;48.736;9.332;2023-03-31T15:44:28;0.70;;;0.70;;
20649;SDS011;10484;48.736;9.332;2023-03-31T15:46:59;1.33;;;0.60;;
20649;SDS011;10484;48.736;9.332;2023-03-31T15:49:30;4.47;;;0.73;;
20649;SDS011;10484;48.736;9.332;2023-03-31T15:51:56;0.63;;;0.30;;
20649;SDS011;10484;48.736;9.332;2023-03-31T15:54:32;1.17;;;0.30;;
20649;SDS011;10484;48.736;9.332;2023-03-31T15:57:06;1.37;;;0.40;;
20649;SDS011;10484;48.736;9.332;2023-03-31T15:59:46;0.40;;;0.30;;
20649;SDS011;10484;48.736;9.332;2023-03-31T16:02:20;0.70;;;0.43;;
20649;SDS011;10484;48.736;9.332;2023-03-31T16:04:49;0.97;;;0.30;;
20649;SDS011;10484;48.736;9.332;2023-03-31T16:07:22;1.90;;;0.67;;
20649;SDS011;10484;48.736;9.332;2023-03-31T16:09:54;1.90;;;0.30;;
20649;SDS011;10484;48.736;9.332;2023-03-31T16:12:33;0.50;;;0.40;;
20649;SDS011;10484;48.736;9.332;2023-03-31T16:15:07;2.40;;;0.50;;
20649;SDS011;10484;48.736;9.332;2023-03-31T16:18:11;1.63;;;0.60;;
20649;SDS011;10484;48.736;9.332;2023-03-31T16:20:36;1.47;;;0.93;;
20649;SDS011;10484;48.736;9.332;2023-03-31T16:23:20;1.10;;;0.40;;
20649;SDS011;10484;48.736;9.332;2023-03-31T16:25:48;2.10;;;0.47;;
20649;SDS011;10484;48.736;9.332;2023-03-31T16:28:15;1.13;;;0.40;;
20649;SDS011;10484;48.736;9.332;2023-03-31T16:30:44;1.87;;;0.53;;
20649;SDS011;10484;48.736;9.332;2023-03-31T16:33:12;2.50;;;0.60;;
20649;SDS011;10484;48.736;9.332;2023-03-31T16:35:43;5.53;;;1.10;;
20649;SDS011;10484;48.736;9.332;2023-03-31T16:38:14;1.00;;;0.50;;
20649;SDS011;10484;48.736;9.332;2023-03-31T16:40:45;1.60;;;0.40;;
20649;SDS011;10484;48.736;9.332;2023-03-31T16:43:13;4.53;;;0.80;;
20649;SDS011;10484;48.736;9.332;2023-03-31T16:45:44;1.90;;;0.80;;
20649;SDS011;10484;48.736;9.332;2023-03-31T16:48:12;1.27;;;0.50;;
20649;SDS011;10484;48.736;9.332;2023-03-31T16:50:41;1.10;;;0.40;;
20649;SDS011;10484;48.736;9.332;2023-03-31T16:53:08;0.80;;;0.50;;
20649;SDS011;10484;48.736;9.332;2023-03-31T16:55:34;0.80;;;0.40;;
20649;SDS011;10484;48.736;9.332;2023-03-31T16:58:00;1.10;;;0.33;;
20649;SDS011;10484;48.736;9.332;2023-03-31T17:00:28;1.00;;;0.30;;
20649;SDS011;10484;48.736;9.332;2023-03-31T17:02:55;2.23;;;0.30;;
20649;SDS011;10484;48.736;9.332;2023-03-31T17:05:22;0.80;;;0.30;;
20649;SDS011;10484;48.736;9.332;2023-03-31T17:07:47;0.67;;;0.50;;
20649;SDS011;10484;48.736;9.332;2023-03-31T17:10:13;2.57;;;0.40;;
20649;SDS011;10484;48.736;9.332;2023-03-31T17:12:39;0.80;;;0.70;;
20649;SDS011;10484;48.736;9.332;2023-03-31T17:15:05;1.43;;;0.70;;
20649;SDS011;10484;48.736;9.332;2023-03-31T17:17:31;1.13;;;0.47;;
20649;SDS011;10484;48.736;9.332;2023-03-31T17:19:57;1.70;;;0.40;;
20649;SDS011;10484;48.736;9.332;2023-03-31T17:22:23;2.40;;;0.60;;
20649;SDS011;10484;48.736;9.332;2023-03-31T17:24:49;1.60;;;0.50;;
20649;SDS011;10484;48.736;9.332;2023-03-31T17:27:20;4.73;;;0.53;;
20649;SDS011;10484;48.736;9.332;2023-03-31T17:29:46;1.23;;;0.40;;
20649;SDS011;10484;48.736;9.332;2023-03-31T17:32:12;0.87;;;0.60;;
20649;SDS011;10484;48.736;9.332;2023-03-31T17:34:39;1.80;;;0.50;;
20649;SDS011;10484;48.736;9.332;2023-03-31T17:37:05;0.83;;;0.50;;
20649;SDS011;10484;48.736;9.332;2023-03-31T17:39:30;2.07;;;0.93;;
20649;SDS011;10484;48.736;9.332;2023-03-31T17:41:56;3.53;;;1.90;;
20649;SDS011;10484;48.736;9.332;2023-03-31T17:44:22;2.20;;;0.90;;
20649;SDS011;10484;48.736;9.332;2023-03-31T17:46:48;1.17;;;0.70;;
20649;SDS011;10484;48.736;9.332;2023-03-31T17:49:14;3.50;;;1.27;;
20649;SDS011;10484;48.736;9.332;2023-03-31T17:51:41;3.33;;;0.83;;
20649;SDS011;10484;48.736;9.332;2023-03-31T17:54:08;4.43;;;1.10;;
20649;SDS011;10484;48.736;9.332;2023-03-31T17:56:35;0.50;;;0.50;;
20649;SDS011;10484;48.736;9.332;2023-03-31T17:59:01;1.73;;;0.70;;